Anzoras — EAZC — position and weather

sailwx.info

Track history (hours):
 
Tides and Currents Weather Stations Pressure Air Temp Water Temp Dewpoint Dewpoint Depression Visibility Wind Speed Wind Dir Waves Ship Positions

Anzoras

Last reported at 2017-Aug-18 11:19 UTC. Time now 2017-Aug-18 14:25 UTC.
Position N 38°57' E 000°34'.

Length 100 m; draft 6.5 m.

Type: Ship (hazmat cat A). MMSI: 224376000.

Date/timePositionNaut miles runAvg speedWind from/ knotsBaromVisibWave heightAir tempDewpointWater temp
2017-Aug-18 11:19N 38°57' E 000°34'410.6
2017-Aug-18 10:59N 38°54' E 000°32'1110.7
2017-Aug-18 09:58N 38°44' E 000°28'1210.4
2017-Aug-18 08:50N 38°34' E 000°19'410.4
2017-Aug-18 08:28N 38°31' E 000°16'510.3
2017-Aug-18 08:01N 38°27' E 000°13'510.2
2017-Aug-18 07:30N 38°23' E 000°10'510.2
2017-Aug-18 07:00N 38°18' E 000°06'510.2
2017-Aug-18 06:30N 38°14' E 000°03'510.1
2017-Aug-18 06:01N 38°09' W 000°00'510.0
2017-Aug-18 05:30N 38°05' W 000°04'510.2
2017-Aug-18 05:01N 38°01' W 000°07'2010.3
2017-Aug-18 03:04N 37°44' W 000°20'110.7
2017-Aug-18 02:56N 37°43' W 000°21'510.7
2017-Aug-18 02:30N 37°39' W 000°25'510.7
2017-Aug-18 02:00N 37°35' W 000°29'510.7
2017-Aug-18 01:29N 37°31' W 000°34'610.6
2017-Aug-18 00:57N 37°27' W 000°39'510.5
2017-Aug-18 00:31N 37°24' W 000°44'610.5
2017-Aug-17 23:57N 37°21' W 000°49'510.3
2017-Aug-17 23:31N 37°17' W 000°54'510.2
2017-Aug-17 23:01N 37°14' W 000°59'226 7.4
2017-Aug-16 16:20N 36°01' W 005°25'11611.0
2017-Aug-16 05:52N 36°15' W 007°47'411.2
2017-Aug-16 05:30N 36°16' W 007°52'1910.8
2017-Aug-16 03:44N 36°21' W 008°14'1810.4
2017-Aug-16 02:02N 36°26' W 008°36'110.4
2017-Aug-16 01:57N 36°26' W 008°37'510.4
2017-Aug-16 01:31N 36°27' W 008°42'610.7
2017-Aug-16 00:59N 36°28' W 008°49'510.8
2017-Aug-16 00:31N 36°30' W 008°55'510.6
2017-Aug-16 00:01N 36°31' W 009°02'510.9
2017-Aug-15 23:31N 36°32' W 009°08'611.0
2017-Aug-15 23:00N 36°34' W 009°15'510.9
2017-Aug-15 22:31N 36°37' W 009°20'611.5
2017-Aug-15 22:01N 36°41' W 009°25'611.6
2017-Aug-15 21:29N 36°46' W 009°30'611.8
2017-Aug-15 21:00N 36°51' W 009°33'611.4
2017-Aug-15 20:31N 36°56' W 009°34'611.2
2017-Aug-15 20:00N 37°02' W 009°36'611.2
2017-Aug-15 19:30N 37°07' W 009°38'611.5
2017-Aug-15 19:00N 37°13' W 009°39'611.3
2017-Aug-15 18:30N 37°19' W 009°41'611.2
2017-Aug-15 18:00N 37°24' W 009°43'611.2
2017-Aug-15 17:31N 37°29' W 009°44'611.4
2017-Aug-15 17:01N 37°35' W 009°46'611.3
2017-Aug-15 16:30N 37°40' W 009°47'611.3
2017-Aug-15 16:01N 37°46' W 009°49'611.4
2017-Aug-15 15:30N 37°52' W 009°50'611.4
2017-Aug-15 15:00N 37°57' W 009°52'611.4
2017-Aug-15 14:31N 38°03' W 009°53'611.2
2017-Aug-15 14:00N 38°08' W 009°55'611.1
2017-Aug-15 13:30N 38°14' W 009°57'611.3
2017-Aug-15 13:01N 38°19' W 009°58'611.3
2017-Aug-15 12:30N 38°24' W 010°00'611.2
2017-Aug-15 12:01N 38°30' W 010°02'611.3
2017-Aug-15 11:31N 38°35' W 010°03'611.1
2017-Aug-15 11:00N 38°41' W 010°05'510.8
2017-Aug-15 10:31N 38°46' W 010°06'611.4
2017-Aug-15 10:00N 38°52' W 010°06'611.4
2017-Aug-15 09:30N 38°58' W 010°06'611.2
2017-Aug-15 09:00N 39°03' W 010°06'611.3
2017-Aug-15 08:31N 39°09' W 010°06'611.2
2017-Aug-15 08:00N 39°15' W 010°06'611.6
2017-Aug-15 07:29N 39°21' W 010°06'611.4
2017-Aug-15 06:58N 39°26' W 010°06'  
2017-Aug-11 19:54N 54°04' W 005°25'511.2
2017-Aug-11 19:29N 54°09' W 005°23'610.9
2017-Aug-11 18:57N 54°14' W 005°20'510.8
2017-Aug-11 18:31N 54°19' W 005°19'510.7
2017-Aug-11 18:01N 54°24' W 005°17'510.4
2017-Aug-11 17:31N 54°29' W 005°19'5 9.9
2017-Aug-11 17:01N 54°34' W 005°22'5 9.1
2017-Aug-11 16:31N 54°38' W 005°25'4 8.7
2017-Aug-11 16:01N 54°42' W 005°28'5 9.8
2017-Aug-11 15:31N 54°43' W 005°36'510.7
2017-Aug-11 15:00N 54°42' W 005°45'7 6.1
2017-Aug-11 13:51N 54°37' W 005°55'0 0.0
2017-Aug-11 13:19N 54°37' W 005°55'0 0.0
2017-Aug-11 12:57N 54°37' W 005°55'0 0.0
2017-Aug-11 12:27N 54°37' W 005°55'0 0.0
2017-Aug-11 11:58N 54°37' W 005°55'0 0.0
2017-Aug-11 11:29N 54°37' W 005°55'0 0.0
2017-Aug-11 10:59N 54°37' W 005°55'0 0.0
2017-Aug-11 10:27N 54°37' W 005°55'0 0.0
2017-Aug-11 09:59N 54°37' W 005°55'0 0.0
2017-Aug-11 09:25N 54°37' W 005°55'0 0.0
2017-Aug-11 08:56N 54°37' W 005°55'0 0.0
2017-Aug-11 08:30N 54°37' W 005°55'0 0.0
2017-Aug-11 07:58N 54°37' W 005°55'0 0.0
2017-Aug-11 07:27N 54°37' W 005°55'0 0.0
2017-Aug-11 07:00N 54°37' W 005°55'0 0.0
2017-Aug-11 06:29N 54°37' W 005°55'0 0.0
2017-Aug-11 05:59N 54°37' W 005°55'0 0.0
2017-Aug-11 05:28N 54°37' W 005°55'0 0.0
2017-Aug-11 04:57N 54°37' W 005°55'0 0.0
2017-Aug-11 04:27N 54°37' W 005°55'0 0.0
2017-Aug-11 03:58N 54°37' W 005°55'0 0.0
2017-Aug-11 03:21N 54°37' W 005°55'0 0.0
2017-Aug-11 02:58N 54°37' W 005°55'0 0.0
2017-Aug-11 02:29N 54°37' W 005°55'0 0.0
2017-Aug-11 01:58N 54°37' W 005°55'0 0.0
2017-Aug-11 01:27N 54°37' W 005°55'0 0.0
2017-Aug-11 00:52N 54°37' W 005°55'0 0.0
2017-Aug-11 00:30N 54°37' W 005°55'0 0.0
2017-Aug-10 23:58N 54°37' W 005°55'0 0.0
2017-Aug-10 23:30N 54°37' W 005°55'0 0.0
2017-Aug-10 22:59N 54°37' W 005°55'0 0.0
2017-Aug-10 22:27N 54°37' W 005°55'0 0.0
2017-Aug-10 21:56N 54°37' W 005°55'0 0.0
2017-Aug-10 21:29N 54°37' W 005°55'0 0.0
2017-Aug-10 21:00N 54°37' W 005°55'0 0.0
2017-Aug-10 20:29N 54°37' W 005°55'0 0.0
2017-Aug-10 19:56N 54°37' W 005°55'0 0.0
2017-Aug-10 19:28N 54°37' W 005°55'0 0.0
2017-Aug-10 18:56N 54°37' W 005°55'0 0.0
2017-Aug-10 18:27N 54°37' W 005°55'0 0.0
2017-Aug-10 17:58N 54°37' W 005°55'0 0.0
2017-Aug-10 17:29N 54°37' W 005°55'0 0.0
2017-Aug-10 16:58N 54°37' W 005°55'0 0.0
2017-Aug-10 16:30N 54°37' W 005°55'0 0.0
2017-Aug-10 15:57N 54°37' W 005°55'0 0.0
2017-Aug-10 15:30N 54°37' W 005°55'0 0.0
2017-Aug-10 15:00N 54°37' W 005°55'0 0.0
2017-Aug-10 14:25N 54°37' W 005°55'0 0.0
2017-Aug-10 13:43N 54°37' W 005°55'0 0.0
2017-Aug-10 13:28N 54°37' W 005°55'0 0.0
2017-Aug-10 13:00N 54°37' W 005°55'0 0.0
2017-Aug-10 12:27N 54°37' W 005°55'0 0.0
2017-Aug-10 12:00N 54°37' W 005°55'0 0.0
2017-Aug-10 11:25N 54°37' W 005°55'0 0.0
2017-Aug-10 10:56N 54°37' W 005°55'0 0.0
2017-Aug-10 10:10N 54°37' W 005°55'0 0.0
2017-Aug-10 10:00N 54°37' W 005°55'0 0.0
2017-Aug-10 09:29N 54°37' W 005°55'0 0.0
2017-Aug-10 09:00N 54°37' W 005°55'0 0.0
2017-Aug-10 08:28N 54°37' W 005°55'0 0.0
2017-Aug-10 08:00N 54°37' W 005°55'0 0.0
2017-Aug-10 07:28N 54°37' W 005°55'0 0.0
2017-Aug-10 06:49N 54°37' W 005°55'0 0.0
2017-Aug-10 06:27N 54°37' W 005°55'0 0.0
2017-Aug-10 05:59N 54°37' W 005°55'0 0.0
2017-Aug-10 05:28N 54°37' W 005°55'0 0.0
2017-Aug-10 05:00N 54°37' W 005°55'0 0.0
2017-Aug-10 04:26N 54°37' W 005°55'0 0.0
2017-Aug-10 03:57N 54°37' W 005°55'0 0.0
2017-Aug-10 03:27N 54°37' W 005°55'0 0.0
2017-Aug-10 02:59N 54°37' W 005°55'0 0.0
2017-Aug-10 02:30N 54°37' W 005°55'0 0.0
2017-Aug-10 01:55N 54°37' W 005°55'0 0.0
2017-Aug-10 01:22N 54°37' W 005°55'0 0.0
2017-Aug-10 00:59N 54°37' W 005°55'0 0.0
2017-Aug-10 00:27N 54°37' W 005°55'0 0.0
2017-Aug-09 23:58N 54°37' W 005°55'0 0.0
2017-Aug-09 23:25N 54°37' W 005°55'0 0.0
2017-Aug-09 22:58N 54°37' W 005°55'0 0.0
2017-Aug-09 22:29N 54°37' W 005°55'0 0.0
2017-Aug-09 21:58N 54°37' W 005°55'0 0.0
2017-Aug-09 21:30N 54°37' W 005°55'0 0.0
2017-Aug-09 20:59N 54°37' W 005°55'0 0.0
2017-Aug-09 20:28N 54°37' W 005°55'0 0.0
2017-Aug-09 19:59N 54°37' W 005°55'0 0.0
2017-Aug-09 19:30N 54°37' W 005°55'0 0.0
2017-Aug-09 18:59N 54°37' W 005°55'0 0.0
2017-Aug-09 18:29N 54°37' W 005°55'0 0.0
2017-Aug-09 18:00N 54°37' W 005°55'0 0.0
2017-Aug-09 17:26N 54°37' W 005°55'0 0.0
2017-Aug-09 16:56N 54°37' W 005°55'1 1.5
2017-Aug-09 16:30N 54°37' W 005°54'5 9.2
2017-Aug-09 16:00N 54°41' W 005°48'5 9.3
2017-Aug-09 15:30N 54°43' W 005°41'1 2.4
2017-Aug-09 14:59N 54°41' W 005°41'0 0.0
2017-Aug-09 14:29N 54°41' W 005°41'0 0.0
2017-Aug-09 13:59N 54°41' W 005°41'0 0.0
2017-Aug-09 13:29N 54°41' W 005°41'0 0.0
2017-Aug-09 12:59N 54°41' W 005°41'0 0.0
2017-Aug-09 12:29N 54°41' W 005°41'0 0.0
2017-Aug-09 11:59N 54°41' W 005°41'0 0.0
2017-Aug-09 11:29N 54°41' W 005°41'0 0.0
2017-Aug-09 10:59N 54°41' W 005°41'0 0.0
2017-Aug-09 10:26N 54°41' W 005°41'0 0.0
2017-Aug-09 09:59N 54°41' W 005°41'0 0.0
2017-Aug-09 09:29N 54°41' W 005°41'0 0.0
2017-Aug-09 08:59N 54°41' W 005°41'0 0.0
2017-Aug-09 08:29N 54°41' W 005°41'0 0.0
2017-Aug-09 07:53N 54°41' W 005°41'0 0.0
2017-Aug-09 07:29N 54°41' W 005°41'0 0.0
2017-Aug-09 06:59N 54°41' W 005°41'0 0.0
2017-Aug-09 06:29N 54°41' W 005°41'0 0.0
2017-Aug-09 05:59N 54°41' W 005°41'0 0.0
2017-Aug-09 05:29N 54°41' W 005°41'0 0.0
2017-Aug-09 04:59N 54°41' W 005°41'0 0.0
2017-Aug-09 04:29N 54°41' W 005°41'0 0.0
2017-Aug-09 03:59N 54°41' W 005°41'0 0.0
2017-Aug-09 03:26N 54°41' W 005°41'0 0.0
2017-Aug-09 02:59N 54°41' W 005°41'0 0.0
2017-Aug-09 02:29N 54°41' W 005°41'0 0.0
2017-Aug-09 01:59N 54°41' W 005°41'0 0.0
2017-Aug-09 01:29N 54°41' W 005°41'0 0.0
2017-Aug-09 00:59N 54°41' W 005°41'0 0.0
2017-Aug-09 00:29N 54°41' W 005°41'0 0.0
2017-Aug-08 23:59N 54°41' W 005°41'0 0.0
2017-Aug-08 23:29N 54°41' W 005°41'0 0.0
2017-Aug-08 22:59N 54°41' W 005°41'0 0.0
2017-Aug-08 22:29N 54°41' W 005°41'0 0.0
2017-Aug-08 21:59N 54°41' W 005°41'0 0.0
2017-Aug-08 21:29N 54°41' W 005°41'0 0.0
2017-Aug-08 20:59N 54°41' W 005°41'0 0.0
2017-Aug-08 20:29N 54°41' W 005°41'0 0.0
2017-Aug-08 19:59N 54°41' W 005°41'0 0.0
2017-Aug-08 19:29N 54°41' W 005°41'0 0.0
2017-Aug-08 18:59N 54°41' W 005°41'0 0.0
2017-Aug-08 18:29N 54°41' W 005°41'0 0.0
2017-Aug-08 17:59N 54°41' W 005°41'0 0.0
2017-Aug-08 17:29N 54°41' W 005°41'0 0.0
2017-Aug-08 16:59N 54°41' W 005°41'0 0.0
2017-Aug-08 16:29N 54°41' W 005°41'0 0.0
2017-Aug-08 15:59N 54°41' W 005°41'0 0.0
2017-Aug-08 15:29N 54°41' W 005°41'0 0.0
2017-Aug-08 14:59N 54°41' W 005°41'0 0.0
2017-Aug-08 14:29N 54°41' W 005°41'0 0.0
2017-Aug-08 13:59N 54°41' W 005°41'0 0.1
2017-Aug-08 13:29N 54°41' W 005°41'0 0.4
2017-Aug-08 13:00N 54°41' W 005°41'2 4.7
2017-Aug-08 12:30N 54°43' W 005°38'510.9
2017-Aug-08 12:00N 54°43' W 005°29'510.1
2017-Aug-08 11:30N 54°38' W 005°25'  
Track history (hours):
 
Tides and Currents Weather Stations Pressure Air Temp Water Temp Dewpoint Dewpoint Depression Visibility Wind Speed Wind Dir Waves Ship Positions

Anzoras

Last reported at 2017-Aug-18 11:19 UTC. Time now 2017-Aug-18 14:25 UTC.
Position N 38°57' E 000°34'.

Length 100 m; draft 6.5 m.

Type: Ship (hazmat cat A). MMSI: 224376000.

Date/timePositionNaut miles runAvg speedWind from/ knotsBaromVisibWave heightAir tempDewpointWater temp
2017-Aug-18 11:19N 38°57' E 000°34'410.6
2017-Aug-18 10:59N 38°54' E 000°32'1110.7
2017-Aug-18 09:58N 38°44' E 000°28'1210.4
2017-Aug-18 08:50N 38°34' E 000°19'410.4
2017-Aug-18 08:28N 38°31' E 000°16'510.3
2017-Aug-18 08:01N 38°27' E 000°13'510.2
2017-Aug-18 07:30N 38°23' E 000°10'510.2
2017-Aug-18 07:00N 38°18' E 000°06'510.2
2017-Aug-18 06:30N 38°14' E 000°03'510.1
2017-Aug-18 06:01N 38°09' W 000°00'510.0
2017-Aug-18 05:30N 38°05' W 000°04'510.2
2017-Aug-18 05:01N 38°01' W 000°07'2010.3
2017-Aug-18 03:04N 37°44' W 000°20'110.7
2017-Aug-18 02:56N 37°43' W 000°21'510.7
2017-Aug-18 02:30N 37°39' W 000°25'510.7
2017-Aug-18 02:00N 37°35' W 000°29'510.7
2017-Aug-18 01:29N 37°31' W 000°34'610.6
2017-Aug-18 00:57N 37°27' W 000°39'510.5
2017-Aug-18 00:31N 37°24' W 000°44'610.5
2017-Aug-17 23:57N 37°21' W 000°49'510.3
2017-Aug-17 23:31N 37°17' W 000°54'510.2
2017-Aug-17 23:01N 37°14' W 000°59'226 7.4
2017-Aug-16 16:20N 36°01' W 005°25'11611.0
2017-Aug-16 05:52N 36°15' W 007°47'411.2
2017-Aug-16 05:30N 36°16' W 007°52'1910.8
2017-Aug-16 03:44N 36°21' W 008°14'1810.4
2017-Aug-16 02:02N 36°26' W 008°36'110.4
2017-Aug-16 01:57N 36°26' W 008°37'510.4
2017-Aug-16 01:31N 36°27' W 008°42'610.7
2017-Aug-16 00:59N 36°28' W 008°49'510.8
2017-Aug-16 00:31N 36°30' W 008°55'510.6
2017-Aug-16 00:01N 36°31' W 009°02'510.9
2017-Aug-15 23:31N 36°32' W 009°08'611.0
2017-Aug-15 23:00N 36°34' W 009°15'510.9
2017-Aug-15 22:31N 36°37' W 009°20'611.5
2017-Aug-15 22:01N 36°41' W 009°25'611.6
2017-Aug-15 21:29N 36°46' W 009°30'611.8
2017-Aug-15 21:00N 36°51' W 009°33'611.4
2017-Aug-15 20:31N 36°56' W 009°34'611.2
2017-Aug-15 20:00N 37°02' W 009°36'611.2
2017-Aug-15 19:30N 37°07' W 009°38'611.5
2017-Aug-15 19:00N 37°13' W 009°39'611.3
2017-Aug-15 18:30N 37°19' W 009°41'611.2
2017-Aug-15 18:00N 37°24' W 009°43'611.2
2017-Aug-15 17:31N 37°29' W 009°44'611.4
2017-Aug-15 17:01N 37°35' W 009°46'611.3
2017-Aug-15 16:30N 37°40' W 009°47'611.3
2017-Aug-15 16:01N 37°46' W 009°49'611.4
2017-Aug-15 15:30N 37°52' W 009°50'611.4
2017-Aug-15 15:00N 37°57' W 009°52'611.4
2017-Aug-15 14:31N 38°03' W 009°53'611.2
2017-Aug-15 14:00N 38°08' W 009°55'611.1
2017-Aug-15 13:30N 38°14' W 009°57'611.3
2017-Aug-15 13:01N 38°19' W 009°58'611.3
2017-Aug-15 12:30N 38°24' W 010°00'611.2
2017-Aug-15 12:01N 38°30' W 010°02'611.3
2017-Aug-15 11:31N 38°35' W 010°03'611.1
2017-Aug-15 11:00N 38°41' W 010°05'510.8
2017-Aug-15 10:31N 38°46' W 010°06'611.4
2017-Aug-15 10:00N 38°52' W 010°06'611.4
2017-Aug-15 09:30N 38°58' W 010°06'611.2
2017-Aug-15 09:00N 39°03' W 010°06'611.3
2017-Aug-15 08:31N 39°09' W 010°06'611.2
2017-Aug-15 08:00N 39°15' W 010°06'611.6
2017-Aug-15 07:29N 39°21' W 010°06'611.4
2017-Aug-15 06:58N 39°26' W 010°06'  
2017-Aug-11 19:54N 54°04' W 005°25'511.2
2017-Aug-11 19:29N 54°09' W 005°23'610.9
2017-Aug-11 18:57N 54°14' W 005°20'510.8
2017-Aug-11 18:31N 54°19' W 005°19'510.7
2017-Aug-11 18:01N 54°24' W 005°17'510.4
2017-Aug-11 17:31N 54°29' W 005°19'5 9.9
2017-Aug-11 17:01N 54°34' W 005°22'5 9.1
2017-Aug-11 16:31N 54°38' W 005°25'4 8.7
2017-Aug-11 16:01N 54°42' W 005°28'5 9.8
2017-Aug-11 15:31N 54°43' W 005°36'510.7
2017-Aug-11 15:00N 54°42' W 005°45'7 6.1
2017-Aug-11 13:51N 54°37' W 005°55'0 0.0
2017-Aug-11 13:19N 54°37' W 005°55'0 0.0
2017-Aug-11 12:57N 54°37' W 005°55'0 0.0
2017-Aug-11 12:27N 54°37' W 005°55'0 0.0
2017-Aug-11 11:58N 54°37' W 005°55'0 0.0
2017-Aug-11 11:29N 54°37' W 005°55'0 0.0
2017-Aug-11 10:59N 54°37' W 005°55'0 0.0
2017-Aug-11 10:27N 54°37' W 005°55'0 0.0
2017-Aug-11 09:59N 54°37' W 005°55'0 0.0
2017-Aug-11 09:25N 54°37' W 005°55'0 0.0
2017-Aug-11 08:56N 54°37' W 005°55'0 0.0
2017-Aug-11 08:30N 54°37' W 005°55'0 0.0
2017-Aug-11 07:58N 54°37' W 005°55'0 0.0
2017-Aug-11 07:27N 54°37' W 005°55'0 0.0
2017-Aug-11 07:00N 54°37' W 005°55'0 0.0
2017-Aug-11 06:29N 54°37' W 005°55'0 0.0
2017-Aug-11 05:59N 54°37' W 005°55'0 0.0
2017-Aug-11 05:28N 54°37' W 005°55'0 0.0
2017-Aug-11 04:57N 54°37' W 005°55'0 0.0
2017-Aug-11 04:27N 54°37' W 005°55'0 0.0
2017-Aug-11 03:58N 54°37' W 005°55'0 0.0
2017-Aug-11 03:21N 54°37' W 005°55'0 0.0
2017-Aug-11 02:58N 54°37' W 005°55'0 0.0
2017-Aug-11 02:29N 54°37' W 005°55'0 0.0
2017-Aug-11 01:58N 54°37' W 005°55'0 0.0
2017-Aug-11 01:27N 54°37' W 005°55'0 0.0
2017-Aug-11 00:52N 54°37' W 005°55'0 0.0
2017-Aug-11 00:30N 54°37' W 005°55'0 0.0
2017-Aug-10 23:58N 54°37' W 005°55'0 0.0
2017-Aug-10 23:30N 54°37' W 005°55'0 0.0
2017-Aug-10 22:59N 54°37' W 005°55'0 0.0
2017-Aug-10 22:27N 54°37' W 005°55'0 0.0
2017-Aug-10 21:56N 54°37' W 005°55'0 0.0
2017-Aug-10 21:29N 54°37' W 005°55'0 0.0
2017-Aug-10 21:00N 54°37' W 005°55'0 0.0
2017-Aug-10 20:29N 54°37' W 005°55'0 0.0
2017-Aug-10 19:56N 54°37' W 005°55'0 0.0
2017-Aug-10 19:28N 54°37' W 005°55'0 0.0
2017-Aug-10 18:56N 54°37' W 005°55'0 0.0
2017-Aug-10 18:27N 54°37' W 005°55'0 0.0
2017-Aug-10 17:58N 54°37' W 005°55'0 0.0
2017-Aug-10 17:29N 54°37' W 005°55'0 0.0
2017-Aug-10 16:58N 54°37' W 005°55'0 0.0
2017-Aug-10 16:30N 54°37' W 005°55'0 0.0
2017-Aug-10 15:57N 54°37' W 005°55'0 0.0
2017-Aug-10 15:30N 54°37' W 005°55'0 0.0
2017-Aug-10 15:00N 54°37' W 005°55'0 0.0
2017-Aug-10 14:25N 54°37' W 005°55'0 0.0
2017-Aug-10 13:43N 54°37' W 005°55'0 0.0
2017-Aug-10 13:28N 54°37' W 005°55'0 0.0
2017-Aug-10 13:00N 54°37' W 005°55'0 0.0
2017-Aug-10 12:27N 54°37' W 005°55'0 0.0
2017-Aug-10 12:00N 54°37' W 005°55'0 0.0
2017-Aug-10 11:25N 54°37' W 005°55'0 0.0
2017-Aug-10 10:56N 54°37' W 005°55'0 0.0
2017-Aug-10 10:10N 54°37' W 005°55'0 0.0
2017-Aug-10 10:00N 54°37' W 005°55'0 0.0
2017-Aug-10 09:29N 54°37' W 005°55'0 0.0
2017-Aug-10 09:00N 54°37' W 005°55'0 0.0
2017-Aug-10 08:28N 54°37' W 005°55'0 0.0
2017-Aug-10 08:00N 54°37' W 005°55'0 0.0
2017-Aug-10 07:28N 54°37' W 005°55'0 0.0
2017-Aug-10 06:49N 54°37' W 005°55'0 0.0
2017-Aug-10 06:27N 54°37' W 005°55'0 0.0
2017-Aug-10 05:59N 54°37' W 005°55'0 0.0
2017-Aug-10 05:28N 54°37' W 005°55'0 0.0
2017-Aug-10 05:00N 54°37' W 005°55'0 0.0
2017-Aug-10 04:26N 54°37' W 005°55'0 0.0
2017-Aug-10 03:57N 54°37' W 005°55'0 0.0
2017-Aug-10 03:27N 54°37' W 005°55'0 0.0
2017-Aug-10 02:59N 54°37' W 005°55'0 0.0
2017-Aug-10 02:30N 54°37' W 005°55'0 0.0
2017-Aug-10 01:55N 54°37' W 005°55'0 0.0
2017-Aug-10 01:22N 54°37' W 005°55'0 0.0
2017-Aug-10 00:59N 54°37' W 005°55'0 0.0
2017-Aug-10 00:27N 54°37' W 005°55'0 0.0
2017-Aug-09 23:58N 54°37' W 005°55'0 0.0
2017-Aug-09 23:25N 54°37' W 005°55'0 0.0
2017-Aug-09 22:58N 54°37' W 005°55'0 0.0
2017-Aug-09 22:29N 54°37' W 005°55'0 0.0
2017-Aug-09 21:58N 54°37' W 005°55'0 0.0
2017-Aug-09 21:30N 54°37' W 005°55'0 0.0
2017-Aug-09 20:59N 54°37' W 005°55'0 0.0
2017-Aug-09 20:28N 54°37' W 005°55'0 0.0
2017-Aug-09 19:59N 54°37' W 005°55'0 0.0
2017-Aug-09 19:30N 54°37' W 005°55'0 0.0
2017-Aug-09 18:59N 54°37' W 005°55'0 0.0
2017-Aug-09 18:29N 54°37' W 005°55'0 0.0
2017-Aug-09 18:00N 54°37' W 005°55'0 0.0
2017-Aug-09 17:26N 54°37' W 005°55'0 0.0
2017-Aug-09 16:56N 54°37' W 005°55'1 1.5
2017-Aug-09 16:30N 54°37' W 005°54'5 9.2
2017-Aug-09 16:00N 54°41' W 005°48'5 9.3
2017-Aug-09 15:30N 54°43' W 005°41'1 2.4
2017-Aug-09 14:59N 54°41' W 005°41'0 0.0
2017-Aug-09 14:29N 54°41' W 005°41'0 0.0
2017-Aug-09 13:59N 54°41' W 005°41'0 0.0
2017-Aug-09 13:29N 54°41' W 005°41'0 0.0
2017-Aug-09 12:59N 54°41' W 005°41'0 0.0
2017-Aug-09 12:29N 54°41' W 005°41'0 0.0
2017-Aug-09 11:59N 54°41' W 005°41'0 0.0
2017-Aug-09 11:29N 54°41' W 005°41'0 0.0
2017-Aug-09 10:59N 54°41' W 005°41'0 0.0
2017-Aug-09 10:26N 54°41' W 005°41'0 0.0
2017-Aug-09 09:59N 54°41' W 005°41'0 0.0
2017-Aug-09 09:29N 54°41' W 005°41'0 0.0
2017-Aug-09 08:59N 54°41' W 005°41'0 0.0
2017-Aug-09 08:29N 54°41' W 005°41'0 0.0
2017-Aug-09 07:53N 54°41' W 005°41'0 0.0
2017-Aug-09 07:29N 54°41' W 005°41'0 0.0
2017-Aug-09 06:59N 54°41' W 005°41'0 0.0
2017-Aug-09 06:29N 54°41' W 005°41'0 0.0
2017-Aug-09 05:59N 54°41' W 005°41'0 0.0
2017-Aug-09 05:29N 54°41' W 005°41'0 0.0
2017-Aug-09 04:59N 54°41' W 005°41'0 0.0
2017-Aug-09 04:29N 54°41' W 005°41'0 0.0
2017-Aug-09 03:59N 54°41' W 005°41'0 0.0
2017-Aug-09 03:26N 54°41' W 005°41'0 0.0
2017-Aug-09 02:59N 54°41' W 005°41'0 0.0
2017-Aug-09 02:29N 54°41' W 005°41'0 0.0
2017-Aug-09 01:59N 54°41' W 005°41'0 0.0
2017-Aug-09 01:29N 54°41' W 005°41'0 0.0
2017-Aug-09 00:59N 54°41' W 005°41'0 0.0
2017-Aug-09 00:29N 54°41' W 005°41'0 0.0
2017-Aug-08 23:59N 54°41' W 005°41'0 0.0
2017-Aug-08 23:29N 54°41' W 005°41'0 0.0
2017-Aug-08 22:59N 54°41' W 005°41'0 0.0
2017-Aug-08 22:29N 54°41' W 005°41'0 0.0
2017-Aug-08 21:59N 54°41' W 005°41'0 0.0
2017-Aug-08 21:29N 54°41' W 005°41'0 0.0
2017-Aug-08 20:59N 54°41' W 005°41'0 0.0
2017-Aug-08 20:29N 54°41' W 005°41'0 0.0
2017-Aug-08 19:59N 54°41' W 005°41'0 0.0
2017-Aug-08 19:29N 54°41' W 005°41'0 0.0
2017-Aug-08 18:59N 54°41' W 005°41'0 0.0
2017-Aug-08 18:29N 54°41' W 005°41'0 0.0
2017-Aug-08 17:59N 54°41' W 005°41'0 0.0
2017-Aug-08 17:29N 54°41' W 005°41'0 0.0
2017-Aug-08 16:59N 54°41' W 005°41'0 0.0
2017-Aug-08 16:29N 54°41' W 005°41'0 0.0
2017-Aug-08 15:59N 54°41' W 005°41'0 0.0
2017-Aug-08 15:29N 54°41' W 005°41'0 0.0
2017-Aug-08 14:59N 54°41' W 005°41'0 0.0
2017-Aug-08 14:29N 54°41' W 005°41'0 0.0
2017-Aug-08 13:59N 54°41' W 005°41'0 0.1
2017-Aug-08 13:29N 54°41' W 005°41'0 0.4
2017-Aug-08 13:00N 54°41' W 005°41'2 4.7
2017-Aug-08 12:30N 54°43' W 005°38'510.9
2017-Aug-08 12:00N 54°43' W 005°29'510.1
2017-Aug-08 11:30N 54°38' W 005°25'  

Dump ship's entire track history